createdAt,value
2023-01-25T00:00:51.835Z,21.02
2023-01-25T00:03:18.947Z,21.73
2023-01-25T00:05:45.947Z,20.98
2023-01-25T00:08:12.920Z,20.88
2023-01-25T00:10:39.846Z,20.13
2023-01-25T00:13:06.859Z,20.98
2023-01-25T00:15:33.871Z,20.65
2023-01-25T00:18:00.809Z,21.58
2023-01-25T00:20:27.984Z,22.80
2023-01-25T00:22:54.953Z,24.38
2023-01-25T00:25:21.891Z,21.92
2023-01-25T00:27:49.106Z,23.05
2023-01-25T00:30:17.199Z,22.55
2023-01-25T00:32:57.742Z,23.02
2023-01-25T00:35:31.494Z,22.88
2023-01-25T00:38:02.667Z,23.52
2023-01-25T00:40:29.761Z,22.55
2023-01-25T00:43:00.883Z,23.02
2023-01-25T00:45:27.905Z,24.38
2023-01-25T00:47:56.432Z,22.83
2023-01-25T00:50:23.399Z,21.02
2023-01-25T00:52:50.431Z,22.88
2023-01-25T00:55:17.387Z,23.02
2023-01-25T00:57:44.418Z,22.00
2023-01-25T01:00:12.008Z,23.92
2023-01-25T01:02:38.989Z,23.90
2023-01-25T01:05:06.974Z,24.00
2023-01-25T01:07:34.772Z,22.02
2023-01-25T01:10:01.727Z,22.35
2023-01-25T01:12:28.743Z,21.95
2023-01-25T01:14:56.734Z,22.48
2023-01-25T01:17:23.785Z,23.10
2023-01-25T01:19:51.004Z,22.83
2023-01-25T01:22:18.570Z,22.67
2023-01-25T01:24:49.093Z,22.73
2023-01-25T01:27:16.065Z,22.45
2023-01-25T01:29:43.212Z,23.48
2023-01-25T01:32:11.776Z,22.23
2023-01-25T01:34:38.836Z,23.52
2023-01-25T01:37:05.721Z,23.02
2023-01-25T01:39:32.798Z,22.50
2023-01-25T01:41:59.916Z,22.75
2023-01-25T01:44:50.458Z,23.25
2023-01-25T01:47:22.120Z,23.08
2023-01-25T01:49:58.788Z,22.83
2023-01-25T01:52:37.591Z,23.08
2023-01-25T01:55:18.225Z,24.58
2023-01-25T01:57:50.373Z,24.00
2023-01-25T02:00:26.960Z,22.02
2023-01-25T02:05:36.741Z,20.83
2023-01-25T02:08:06.571Z,23.25
2023-01-25T02:10:35.031Z,23.80
2023-01-25T02:13:02.074Z,22.42
2023-01-25T02:15:44.798Z,22.80
2023-01-25T02:18:12.494Z,23.27
2023-01-25T02:20:45.481Z,22.90
2023-01-25T02:23:19.602Z,24.02
2023-01-25T02:25:46.938Z,23.45
2023-01-25T02:28:25.813Z,23.05
2023-01-25T02:30:53.123Z,22.98
2023-01-25T02:33:23.708Z,24.80
2023-01-25T02:35:57.551Z,24.30
2023-01-25T02:38:25.053Z,23.42
2023-01-25T02:40:59.363Z,23.77
2023-01-25T02:43:32.510Z,22.53
2023-01-25T02:46:26.151Z,22.83
2023-01-25T02:48:55.356Z,22.50
2023-01-25T02:51:24.690Z,23.00
2023-01-25T02:53:52.843Z,22.55
2023-01-25T02:56:21.343Z,22.67
2023-01-25T02:58:48.651Z,23.38
2023-01-25T03:01:17.388Z,23.73
2023-01-25T03:03:44.921Z,23.75
2023-01-25T03:06:13.289Z,23.77
2023-01-25T03:08:43.071Z,23.25
2023-01-25T03:11:10.151Z,23.67
2023-01-25T03:13:38.756Z,24.30
2023-01-25T03:16:09.334Z,23.35
2023-01-25T03:18:37.223Z,23.45
2023-01-25T03:21:09.423Z,24.50
2023-01-25T03:23:37.020Z,22.60
2023-01-25T03:26:19.435Z,23.45
2023-01-25T03:29:09.270Z,22.35
2023-01-25T03:31:39.539Z,23.45
2023-01-25T03:34:07.371Z,22.95
2023-01-25T03:36:38.705Z,22.25
2023-01-25T03:39:05.948Z,22.33
2023-01-25T03:41:39.623Z,25.45
2023-01-25T03:44:11.663Z,22.75
2023-01-25T03:46:40.357Z,24.58
2023-01-25T03:49:07.865Z,25.92
2023-01-25T03:51:35.581Z,23.17
2023-01-25T03:54:03.811Z,23.77
2023-01-25T03:56:34.554Z,24.83
2023-01-25T03:59:08.005Z,23.25
2023-01-25T04:01:36.163Z,23.40
2023-01-25T04:04:03.744Z,23.48
2023-01-25T04:06:30.799Z,22.60
2023-01-25T04:08:57.932Z,23.70
2023-01-25T04:11:26.731Z,24.25
2023-01-25T04:13:54.433Z,24.23
2023-01-25T04:16:24.504Z,21.33
2023-01-25T04:19:20.763Z,21.50
2023-01-25T04:21:47.843Z,24.17
2023-01-25T04:24:14.768Z,21.55
2023-01-25T04:26:43.702Z,23.42
2023-01-25T04:29:10.936Z,23.35
2023-01-25T04:31:38.596Z,20.88
2023-01-25T04:34:06.369Z,21.58
2023-01-25T04:36:33.556Z,23.25
2023-01-25T04:39:00.722Z,22.38
2023-01-25T04:41:29.408Z,23.15
2023-01-25T04:43:57.770Z,23.92
2023-01-25T04:46:25.638Z,22.52
2023-01-25T04:48:54.023Z,22.00
2023-01-25T04:51:21.485Z,21.65
2023-01-25T04:53:48.508Z,20.65
2023-01-25T04:56:15.673Z,19.88
2023-01-25T04:58:52.936Z,21.45
2023-01-25T05:01:20.054Z,22.05
2023-01-25T05:03:47.022Z,21.27
2023-01-25T05:06:29.557Z,20.63
2023-01-25T05:08:56.704Z,19.48
2023-01-25T05:11:23.618Z,21.65
2023-01-25T05:13:56.665Z,21.40
2023-01-25T05:19:00.319Z,18.98
2023-01-25T05:21:59.147Z,19.10
2023-01-25T05:24:46.877Z,18.90
2023-01-25T05:27:18.795Z,18.63
2023-01-25T05:29:56.238Z,17.55
2023-01-25T05:32:30.676Z,17.80
2023-01-25T05:35:00.773Z,19.63
2023-01-25T05:37:28.339Z,18.73
2023-01-25T05:40:01.301Z,18.15
2023-01-25T05:42:29.927Z,18.13
2023-01-25T05:44:57.158Z,19.52
2023-01-25T05:47:24.927Z,18.42
2023-01-25T05:49:52.548Z,16.13
2023-01-25T05:52:34.503Z,16.77
2023-01-25T05:55:02.170Z,15.45
2023-01-25T05:57:29.630Z,15.77
2023-01-25T05:59:58.584Z,15.10
2023-01-25T06:02:25.978Z,13.80
2023-01-25T06:04:53.693Z,14.32
2023-01-25T06:07:21.053Z,14.88
2023-01-25T06:09:49.242Z,14.70
2023-01-25T06:12:21.784Z,14.18
2023-01-25T06:14:49.472Z,12.90
2023-01-25T06:17:16.472Z,13.55
2023-01-25T06:20:06.994Z,12.93
2023-01-25T06:22:37.158Z,13.50
2023-01-25T06:25:04.657Z,13.82
2023-01-25T06:27:31.752Z,13.73
2023-01-25T06:29:58.731Z,14.13
2023-01-25T06:32:32.613Z,14.13
2023-01-25T06:35:00.177Z,13.93
2023-01-25T06:37:27.378Z,13.82
2023-01-25T06:39:54.507Z,13.38
2023-01-25T06:42:23.762Z,13.35
2023-01-25T06:44:50.781Z,13.95
2023-01-25T06:47:17.988Z,13.43
2023-01-25T06:49:45.034Z,12.20
2023-01-25T06:52:12.277Z,13.02
2023-01-25T06:54:39.206Z,12.55
2023-01-25T06:57:06.347Z,11.43
2023-01-25T06:59:33.301Z,11.52
2023-01-25T07:02:00.363Z,12.00
2023-01-25T07:04:27.384Z,11.88
2023-01-25T07:06:54.535Z,12.65
2023-01-25T07:09:24.372Z,12.40
2023-01-25T07:11:51.931Z,12.27
2023-01-25T07:14:19.256Z,12.27
2023-01-25T07:16:46.339Z,12.35
2023-01-25T07:19:13.388Z,11.82
2023-01-25T07:21:40.440Z,12.98
2023-01-25T07:24:07.784Z,12.43
2023-01-25T07:26:34.996Z,12.32
2023-01-25T07:29:04.362Z,12.65
2023-01-25T07:31:31.986Z,12.25
2023-01-25T07:33:59.203Z,12.93
2023-01-25T07:36:26.711Z,12.90
2023-01-25T07:38:55.551Z,12.63
2023-01-25T07:41:23.698Z,11.48
2023-01-25T07:43:52.400Z,12.15
2023-01-25T07:49:15.959Z,12.50
2023-01-25T07:51:43.081Z,12.75
2023-01-25T07:54:11.602Z,15.15
2023-01-25T07:56:40.573Z,13.43
2023-01-25T07:59:08.490Z,16.15
2023-01-25T08:01:37.006Z,18.02
2023-01-25T08:04:05.102Z,14.70
2023-01-25T08:06:36.299Z,14.05
2023-01-25T08:09:06.670Z,13.18
2023-01-25T08:11:34.027Z,11.15
2023-01-25T08:14:03.083Z,10.77
2023-01-25T08:16:32.136Z,11.70
2023-01-25T08:19:01.074Z,11.50
2023-01-25T08:21:31.723Z,11.02
2023-01-25T08:24:00.575Z,10.70
2023-01-25T08:26:28.374Z,11.27
2023-01-25T08:28:55.953Z,12.05
2023-01-25T08:31:25.407Z,12.73
2023-01-25T08:33:53.910Z,14.63
2023-01-25T08:36:21.578Z,14.60
2023-01-25T08:38:49.016Z,16.17
2023-01-25T08:41:19.499Z,14.15
2023-01-25T08:43:47.837Z,13.68
2023-01-25T08:46:16.585Z,13.98
2023-01-25T08:48:43.776Z,14.18
2023-01-25T08:51:16.487Z,12.10
2023-01-25T08:53:43.789Z,12.60
2023-01-25T08:56:13.789Z,10.63
2023-01-25T08:58:44.534Z,10.70
2023-01-25T09:01:13.791Z,13.77
2023-01-25T09:03:43.693Z,17.73
2023-01-25T09:06:12.234Z,13.23
2023-01-25T09:08:39.757Z,12.77
2023-01-25T09:11:12.957Z,12.45
2023-01-25T09:13:43.887Z,13.63
2023-01-25T09:16:13.720Z,12.48
2023-01-25T09:18:43.420Z,11.93
2023-01-25T09:21:12.066Z,10.25
2023-01-25T09:23:50.835Z,10.35
2023-01-25T09:26:19.434Z,10.15
2023-01-25T09:28:51.528Z,9.80
2023-01-25T09:31:22.886Z,11.20
2023-01-25T09:34:15.090Z,11.68
2023-01-25T09:36:42.416Z,10.10
2023-01-25T09:39:12.355Z,9.25
2023-01-25T09:42:06.589Z,9.75
2023-01-25T09:44:52.635Z,17.75
2023-01-25T09:48:00.588Z,16.45
2023-01-25T09:50:35.817Z,12.38
2023-01-25T09:53:28.064Z,11.57
2023-01-25T09:55:59.652Z,11.38
2023-01-25T09:58:35.053Z,11.10
2023-01-25T10:01:32.813Z,10.85
2023-01-25T10:04:19.363Z,10.75
2023-01-25T10:07:00.265Z,11.25
2023-01-25T10:09:49.775Z,11.38
2023-01-25T10:12:25.159Z,10.75
2023-01-25T10:14:52.804Z,10.60
2023-01-25T10:17:36.693Z,10.10
2023-01-25T10:20:19.487Z,9.68
2023-01-25T10:22:52.285Z,10.10
2023-01-25T10:25:26.943Z,10.00
2023-01-25T10:28:20.673Z,11.90
2023-01-25T10:31:02.760Z,11.60
2023-01-25T10:33:35.151Z,11.82
2023-01-25T10:36:06.702Z,12.23
2023-01-25T10:38:42.638Z,10.52
2023-01-25T10:41:17.163Z,10.45
2023-01-25T10:43:44.053Z,11.52
2023-01-25T10:46:24.594Z,12.02
2023-01-25T10:48:51.920Z,11.93
2023-01-25T10:51:30.766Z,11.15
2023-01-25T10:54:05.744Z,11.88
2023-01-25T10:56:35.648Z,11.07
2023-01-25T10:59:24.445Z,10.55
2023-01-25T11:01:52.159Z,11.98
2023-01-25T11:04:38.371Z,12.18
2023-01-25T11:07:06.391Z,12.50
2023-01-25T11:09:37.118Z,11.75
2023-01-25T11:12:19.497Z,12.00
2023-01-25T11:14:49.934Z,11.65
2023-01-25T11:17:30.407Z,13.52
2023-01-25T11:20:07.869Z,11.23
2023-01-25T11:22:35.296Z,12.18
2023-01-25T11:25:34.544Z,12.88
2023-01-25T11:28:21.355Z,14.65
2023-01-25T11:30:49.448Z,12.25
2023-01-25T11:33:19.343Z,15.65
2023-01-25T11:36:06.370Z,17.75
2023-01-25T11:38:33.373Z,21.60
2023-01-25T11:41:23.752Z,35.40
2023-01-25T11:44:27.027Z,23.08
2023-01-25T11:47:09.421Z,16.02
2023-01-25T11:49:58.076Z,14.90
2023-01-25T11:52:44.174Z,12.48
2023-01-25T11:55:28.809Z,12.07
2023-01-25T11:58:06.733Z,12.80
2023-01-25T12:01:09.545Z,14.80
2023-01-25T12:03:54.842Z,12.82
2023-01-25T12:06:56.041Z,12.80
2023-01-25T12:09:36.835Z,11.73
2023-01-25T12:12:25.075Z,9.90
2023-01-25T12:15:11.248Z,10.57
2023-01-25T12:18:14.533Z,10.32
2023-01-25T12:21:23.081Z,10.35
2023-01-25T12:24:24.855Z,12.48
2023-01-25T12:27:07.665Z,12.77
2023-01-25T12:29:59.000Z,15.55
2023-01-25T12:32:38.604Z,18.77
2023-01-25T12:35:17.555Z,21.33
2023-01-25T12:37:46.712Z,18.60
2023-01-25T12:40:25.928Z,14.45
2023-01-25T12:42:58.735Z,14.02
2023-01-25T12:45:27.971Z,13.32
2023-01-25T12:48:00.498Z,13.18
2023-01-25T12:50:43.281Z,14.00
2023-01-25T12:53:31.563Z,15.43
2023-01-25T12:55:59.360Z,18.52
2023-01-25T12:58:55.421Z,18.35
2023-01-25T13:01:45.873Z,15.50
2023-01-25T13:04:42.142Z,16.50
2023-01-25T13:07:33.138Z,15.98
2023-01-25T13:10:10.768Z,14.93
2023-01-25T13:13:05.010Z,13.90
2023-01-25T13:15:40.095Z,15.15
2023-01-25T13:18:29.277Z,15.80
2023-01-25T13:21:00.893Z,17.27
2023-01-25T13:23:47.639Z,16.35
2023-01-25T13:26:29.717Z,15.73
2023-01-25T13:29:01.565Z,14.80
2023-01-25T13:31:59.084Z,15.02
2023-01-25T13:34:39.365Z,12.93
2023-01-25T13:37:20.356Z,12.35
2023-01-25T13:39:55.879Z,13.18
2023-01-25T13:42:27.112Z,12.70
2023-01-25T13:44:59.231Z,14.02
2023-01-25T13:47:30.843Z,13.35
2023-01-25T13:50:21.942Z,12.70
2023-01-25T13:53:01.276Z,14.23
2023-01-25T13:55:30.403Z,16.40
2023-01-25T13:58:24.030Z,17.58
2023-01-25T14:01:06.623Z,14.90
2023-01-25T14:03:43.562Z,14.30
2023-01-25T14:06:38.987Z,14.98
2023-01-25T14:09:17.289Z,15.57
2023-01-25T14:11:54.995Z,16.45
2023-01-25T14:14:27.417Z,15.98
2023-01-25T14:17:21.035Z,17.15
2023-01-25T14:19:54.691Z,14.40
2023-01-25T14:22:22.161Z,14.63
2023-01-25T14:25:14.775Z,13.70
2023-01-25T14:27:45.385Z,13.07
2023-01-25T14:30:23.601Z,11.95
2023-01-25T14:32:56.332Z,13.25
2023-01-25T14:35:56.485Z,13.95
2023-01-25T14:38:27.451Z,13.32
2023-01-25T14:40:59.115Z,14.35
2023-01-25T14:43:26.642Z,13.20
2023-01-25T14:45:53.789Z,14.05
2023-01-25T14:48:42.196Z,14.57
2023-01-25T14:51:21.681Z,13.93
2023-01-25T14:53:55.667Z,14.25
2023-01-25T14:56:36.321Z,15.40
2023-01-25T14:59:05.025Z,14.57
2023-01-25T15:01:41.746Z,15.73
2023-01-25T15:04:13.265Z,16.77
2023-01-25T15:06:51.691Z,14.48
2023-01-25T15:09:40.728Z,15.48
2023-01-25T15:12:17.014Z,16.17
2023-01-25T15:14:52.499Z,15.63
2023-01-25T15:17:49.100Z,15.27
2023-01-25T15:20:43.737Z,14.23
2023-01-25T15:23:24.572Z,13.38
2023-01-25T15:26:00.090Z,12.68
2023-01-25T15:28:34.354Z,14.68
2023-01-25T15:31:03.495Z,13.30
2023-01-25T15:33:32.603Z,12.15
2023-01-25T15:35:59.694Z,12.60
2023-01-25T15:38:26.788Z,13.23
2023-01-25T15:40:53.901Z,12.68
2023-01-25T15:43:20.990Z,14.38
2023-01-25T15:45:50.615Z,13.48
2023-01-25T15:48:29.213Z,14.00
2023-01-25T15:50:57.565Z,14.25
2023-01-25T15:53:25.500Z,11.20
2023-01-25T15:56:04.237Z,13.10
2023-01-25T15:58:34.429Z,12.57
2023-01-25T16:01:01.963Z,11.98
2023-01-25T16:03:29.786Z,12.35
2023-01-25T16:06:07.392Z,15.07
2023-01-25T16:08:37.091Z,15.85
2023-01-25T16:11:04.155Z,15.60
2023-01-25T16:13:31.164Z,14.23
2023-01-25T16:15:58.295Z,15.25
2023-01-25T16:18:25.308Z,15.27
2023-01-25T16:20:52.239Z,15.70
2023-01-25T16:23:19.324Z,14.63
2023-01-25T16:25:48.726Z,14.75
2023-01-25T16:28:16.713Z,16.60
2023-01-25T16:30:47.104Z,18.00
2023-01-25T16:33:14.231Z,24.65
2023-01-25T16:35:41.238Z,20.23
2023-01-25T16:38:11.398Z,14.35
2023-01-25T16:40:39.736Z,12.50
2023-01-25T16:43:06.802Z,13.52
2023-01-25T16:45:33.936Z,12.88
2023-01-25T16:48:02.037Z,11.88
2023-01-25T16:50:29.318Z,13.15
2023-01-25T16:52:58.555Z,12.30
2023-01-25T16:55:25.548Z,13.23
2023-01-25T16:57:52.622Z,12.75
2023-01-25T17:00:20.097Z,12.75
2023-01-25T17:02:58.761Z,13.00
2023-01-25T17:05:34.122Z,11.18
2023-01-25T17:08:01.462Z,12.40
2023-01-25T17:10:29.853Z,13.35
2023-01-25T17:12:56.914Z,13.52
2023-01-25T17:15:23.962Z,14.85
2023-01-25T17:17:50.964Z,14.38
2023-01-25T17:20:18.162Z,13.23
2023-01-25T17:22:49.677Z,13.10
2023-01-25T17:25:18.384Z,13.82
2023-01-25T17:27:45.379Z,13.02
2023-01-25T17:30:13.249Z,14.10
2023-01-25T17:32:41.042Z,15.43
2023-01-25T17:35:08.448Z,15.55
2023-01-25T17:37:35.454Z,13.75
2023-01-25T17:40:03.101Z,12.07
2023-01-25T17:42:30.075Z,10.73
2023-01-25T17:44:57.015Z,11.63
2023-01-25T17:47:24.119Z,11.00
2023-01-25T17:49:51.067Z,11.40
2023-01-25T17:52:18.047Z,11.98
2023-01-25T17:54:44.991Z,13.32
2023-01-25T17:57:12.040Z,14.65
2023-01-25T17:59:39.281Z,15.43
2023-01-25T18:02:06.616Z,14.15
2023-01-25T18:04:34.547Z,14.38
2023-01-25T18:07:01.532Z,13.68
2023-01-25T18:09:28.831Z,14.25
2023-01-25T18:11:55.899Z,13.73
2023-01-25T18:14:22.817Z,14.13
2023-01-25T18:16:50.597Z,13.30
2023-01-25T18:19:17.658Z,15.73
2023-01-25T18:21:44.641Z,14.75
2023-01-25T18:24:25.445Z,16.85
2023-01-25T18:26:59.365Z,14.88
2023-01-25T18:29:47.522Z,15.93
2023-01-25T18:32:15.933Z,14.40
2023-01-25T18:34:42.977Z,15.10
2023-01-25T18:37:20.561Z,11.52
2023-01-25T18:39:53.035Z,10.07
2023-01-25T18:42:21.774Z,11.65
2023-01-25T18:44:48.932Z,12.95
2023-01-25T18:47:20.988Z,11.40
2023-01-25T18:49:49.777Z,12.80
2023-01-25T18:52:18.415Z,12.80
2023-01-25T18:54:46.332Z,14.38
2023-01-25T18:57:14.605Z,14.50
2023-01-25T18:59:42.161Z,13.82
2023-01-25T19:02:12.486Z,14.60
2023-01-25T19:04:39.724Z,13.35
2023-01-25T19:07:07.373Z,14.27
2023-01-25T19:09:34.567Z,12.60
2023-01-25T19:12:01.670Z,13.20
2023-01-25T19:14:28.945Z,12.32
2023-01-25T19:16:56.400Z,12.65
2023-01-25T19:19:23.683Z,13.35
2023-01-25T19:21:50.754Z,13.48
2023-01-25T19:24:19.582Z,12.05
2023-01-25T19:26:47.470Z,13.40
2023-01-25T19:29:15.326Z,13.80
2023-01-25T19:31:42.503Z,14.52
2023-01-25T19:34:09.746Z,13.70
2023-01-25T19:36:39.422Z,12.52
2023-01-25T19:39:10.296Z,14.00
2023-01-25T19:41:38.983Z,12.45
2023-01-25T19:44:07.377Z,13.25
2023-01-25T19:46:36.648Z,13.07
2023-01-25T19:49:08.116Z,13.55
2023-01-25T19:51:37.178Z,15.70
2023-01-25T19:54:06.990Z,14.93
2023-01-25T19:56:36.797Z,14.77
2023-01-25T19:59:05.336Z,16.20
2023-01-25T20:01:33.073Z,15.40
2023-01-25T20:04:01.028Z,15.32
2023-01-25T20:06:28.417Z,13.95
2023-01-25T20:08:55.679Z,13.52
2023-01-25T20:11:26.265Z,15.45
2023-01-25T20:13:56.036Z,14.00
2023-01-25T20:16:23.834Z,14.40
2023-01-25T20:18:51.094Z,14.82
2023-01-25T20:21:20.690Z,14.05
2023-01-25T20:23:50.118Z,13.00
2023-01-25T20:26:20.371Z,13.30
2023-01-25T20:28:51.639Z,12.77
2023-01-25T20:31:23.159Z,14.00
2023-01-25T20:33:51.881Z,13.80
2023-01-25T20:36:19.198Z,12.60
2023-01-25T20:38:46.791Z,13.45
2023-01-25T20:41:16.632Z,13.77
2023-01-25T20:43:58.064Z,14.20
2023-01-25T20:46:25.454Z,14.48
2023-01-25T20:48:53.894Z,13.38
2023-01-25T20:51:21.719Z,12.43
2023-01-25T20:53:50.421Z,12.63
2023-01-25T20:56:19.087Z,14.13
2023-01-25T20:58:50.661Z,14.50
2023-01-25T21:01:19.867Z,14.75
2023-01-25T21:03:47.970Z,13.30
2023-01-25T21:06:15.922Z,12.77
2023-01-25T21:08:43.728Z,13.20
2023-01-25T21:11:11.649Z,13.82
2023-01-25T21:13:38.680Z,14.43
2023-01-25T21:16:10.380Z,14.48
2023-01-25T21:18:43.237Z,13.85
2023-01-25T21:21:13.428Z,14.77
2023-01-25T21:23:42.873Z,14.57
2023-01-25T21:26:17.354Z,15.13
2023-01-25T21:28:44.739Z,15.30
2023-01-25T21:31:33.377Z,16.27
2023-01-25T21:34:01.263Z,15.00
2023-01-25T21:36:28.974Z,16.63
2023-01-25T21:38:56.470Z,17.00
2023-01-25T21:41:26.100Z,17.17
2023-01-25T21:44:13.374Z,17.13
2023-01-25T21:46:40.810Z,17.05
2023-01-25T21:49:28.829Z,17.30
2023-01-25T21:52:01.735Z,15.73
2023-01-25T21:54:34.927Z,15.70
2023-01-25T21:57:05.405Z,15.70
2023-01-25T21:59:32.722Z,15.07
2023-01-25T22:01:59.677Z,15.40
2023-01-25T22:04:27.247Z,15.32
2023-01-25T22:06:54.875Z,14.55
2023-01-25T22:09:22.866Z,15.27
2023-01-25T22:11:50.989Z,15.85
2023-01-25T22:14:19.404Z,15.95
2023-01-25T22:16:47.158Z,15.30
2023-01-25T22:19:14.468Z,16.02
2023-01-25T22:21:41.525Z,16.33
2023-01-25T22:24:11.104Z,16.33
2023-01-25T22:27:20.491Z,15.45
2023-01-25T22:29:47.495Z,14.95
2023-01-25T22:32:14.587Z,16.27
2023-01-25T22:34:41.612Z,15.00
2023-01-25T22:37:11.555Z,15.38
2023-01-25T22:39:38.691Z,13.95
2023-01-25T22:42:05.689Z,14.18
2023-01-25T22:44:32.727Z,14.95
2023-01-25T22:46:59.673Z,15.55
2023-01-25T22:49:26.835Z,14.63
2023-01-25T22:51:53.738Z,15.35
2023-01-25T22:54:20.775Z,16.83
2023-01-25T22:56:47.783Z,14.93
2023-01-25T22:59:18.848Z,15.73
2023-01-25T23:01:46.238Z,14.95
2023-01-25T23:04:13.368Z,15.27
2023-01-25T23:06:40.553Z,15.50
2023-01-25T23:09:07.671Z,14.35
2023-01-25T23:11:37.854Z,14.65
2023-01-25T23:14:29.588Z,14.23
2023-01-25T23:17:16.674Z,13.70
2023-01-25T23:19:43.663Z,13.35
2023-01-25T23:22:10.659Z,14.13
2023-01-25T23:24:37.740Z,14.52
2023-01-25T23:27:04.873Z,13.77
2023-01-25T23:29:32.153Z,13.77
2023-01-25T23:31:59.270Z,14.48
2023-01-25T23:34:26.273Z,13.82
2023-01-25T23:36:53.233Z,13.30
2023-01-25T23:39:20.343Z,13.18
2023-01-25T23:41:48.196Z,13.65
2023-01-25T23:44:15.112Z,13.32
2023-01-25T23:46:42.137Z,13.52
2023-01-25T23:49:09.165Z,14.65
2023-01-25T23:51:36.249Z,12.95
2023-01-25T23:54:03.212Z,13.48
2023-01-25T23:56:30.202Z,14.80
2023-01-25T23:58:57.765Z,14.13
